sensor_id;sensor_type;location;lat;lon;timestamp;pressure;altitude;pressure_sealevel;temperature;humidity
63097;BME280;49185;42.320;23.198;2022-10-31T00:01:16;95299.09;;;7.99;75.22
63097;BME280;49185;42.320;23.198;2022-10-31T00:03:42;95306.66;;;8.95;71.05
63097;BME280;49185;42.320;23.198;2022-10-31T00:06:07;95313.06;;;9.06;70.74
63097;BME280;49185;42.320;23.198;2022-10-31T00:08:33;95314.41;;;8.41;73.25
63097;BME280;49185;42.320;23.198;2022-10-31T00:10:59;95316.41;;;8.02;75.00
63097;BME280;49185;42.320;23.198;2022-10-31T00:13:24;95300.50;;;7.77;75.87
63097;BME280;49185;42.320;23.198;2022-10-31T00:15:50;95309.44;;;8.26;75.09
63097;BME280;49185;42.320;23.198;2022-10-31T00:18:15;95309.72;;;8.43;73.17
63097;BME280;49185;42.320;23.198;2022-10-31T00:20:41;95300.63;;;7.89;75.44
63097;BME280;49185;42.320;23.198;2022-10-31T00:23:06;95300.44;;;8.09;75.52
63097;BME280;49185;42.320;23.198;2022-10-31T00:25:34;95307.47;;;8.96;71.27
63097;BME280;49185;42.320;23.198;2022-10-31T00:28:00;95311.25;;;8.51;72.32
63097;BME280;49185;42.320;23.198;2022-10-31T00:30:25;95314.97;;;7.81;75.08
63097;BME280;49185;42.320;23.198;2022-10-31T00:32:51;95316.00;;;7.48;76.17
63097;BME280;49185;42.320;23.198;2022-10-31T00:35:16;95312.94;;;7.76;75.60
63097;BME280;49185;42.320;23.198;2022-10-31T00:37:42;95309.00;;;7.29;77.04
63097;BME280;49185;42.320;23.198;2022-10-31T00:40:08;95303.53;;;7.23;77.95
63097;BME280;49185;42.320;23.198;2022-10-31T00:42:33;95301.25;;;7.34;77.36
63097;BME280;49185;42.320;23.198;2022-10-31T00:44:59;95301.91;;;8.23;73.41
63097;BME280;49185;42.320;23.198;2022-10-31T00:47:24;95298.19;;;8.31;72.31
63097;BME280;49185;42.320;23.198;2022-10-31T00:49:49;95301.59;;;7.69;74.47
63097;BME280;49185;42.320;23.198;2022-10-31T00:52:15;95306.31;;;7.35;76.33
63097;BME280;49185;42.320;23.198;2022-10-31T00:54:40;95305.19;;;8.00;74.48
63097;BME280;49185;42.320;23.198;2022-10-31T00:57:06;95301.09;;;7.79;74.82
63097;BME280;49185;42.320;23.198;2022-10-31T00:59:31;95304.81;;;7.46;76.43
63097;BME280;49185;42.320;23.198;2022-10-31T01:01:56;95307.22;;;7.22;77.20
63097;BME280;49185;42.320;23.198;2022-10-31T01:04:22;95301.16;;;7.15;78.22
63097;BME280;49185;42.320;23.198;2022-10-31T01:06:47;95298.78;;;7.89;75.00
63097;BME280;49185;42.320;23.198;2022-10-31T01:09:13;95299.91;;;7.75;75.51
63097;BME280;49185;42.320;23.198;2022-10-31T01:11:38;95302.13;;;7.21;77.13
63097;BME280;49185;42.320;23.198;2022-10-31T01:14:03;95299.19;;;6.97;78.20
63097;BME280;49185;42.320;23.198;2022-10-31T01:16:29;95296.38;;;6.92;78.65
63097;BME280;49185;42.320;23.198;2022-10-31T01:18:54;95300.66;;;6.93;78.69
63097;BME280;49185;42.320;23.198;2022-10-31T01:21:23;95306.53;;;6.95;78.44
63097;BME280;49185;42.320;23.198;2022-10-31T01:23:49;95312.75;;;7.46;76.54
63097;BME280;49185;42.320;23.198;2022-10-31T01:26:24;95305.59;;;7.21;76.86
63097;BME280;49185;42.320;23.198;2022-10-31T01:28:56;95307.69;;;7.06;78.09
63097;BME280;49185;42.320;23.198;2022-10-31T01:31:24;95310.63;;;6.98;78.63
63097;BME280;49185;42.320;23.198;2022-10-31T01:33:51;95317.13;;;6.95;79.15
63097;BME280;49185;42.320;23.198;2022-10-31T01:36:20;95306.28;;;7.10;78.94
63097;BME280;49185;42.320;23.198;2022-10-31T01:38:46;95303.19;;;7.13;78.71
63097;BME280;49185;42.320;23.198;2022-10-31T01:41:14;95289.16;;;7.13;77.77
63097;BME280;49185;42.320;23.198;2022-10-31T01:46:08;95291.19;;;7.11;78.45
63097;BME280;49185;42.320;23.198;2022-10-31T01:48:34;95295.69;;;7.10;78.12
63097;BME280;49185;42.320;23.198;2022-10-31T01:51:00;95293.03;;;7.10;77.91
63097;BME280;49185;42.320;23.198;2022-10-31T01:53:25;95302.78;;;7.10;77.87
63097;BME280;49185;42.320;23.198;2022-10-31T01:55:51;95307.31;;;7.66;74.83
63097;BME280;49185;42.320;23.198;2022-10-31T01:58:21;95312.72;;;7.21;76.21
63097;BME280;49185;42.320;23.198;2022-10-31T02:00:51;95308.78;;;6.98;77.74
63097;BME280;49185;42.320;23.198;2022-10-31T02:03:20;95297.88;;;7.13;77.43
63097;BME280;49185;42.320;23.198;2022-10-31T02:05:47;95302.22;;;7.39;76.23
63097;BME280;49185;42.320;23.198;2022-10-31T02:10:43;95299.28;;;8.42;72.26
63097;BME280;49185;42.320;23.198;2022-10-31T02:13:09;95286.03;;;8.42;71.20
63097;BME280;49185;42.320;23.198;2022-10-31T02:15:35;95282.34;;;8.06;72.89
63097;BME280;49185;42.320;23.198;2022-10-31T02:18:02;95294.63;;;7.75;73.97
63097;BME280;49185;42.320;23.198;2022-10-31T02:28:50;95285.88;;;8.18;73.02
63097;BME280;49185;42.320;23.198;2022-10-31T02:34:09;95278.53;;;8.39;73.13
63097;BME280;49185;42.320;23.198;2022-10-31T02:36:58;95279.50;;;8.44;71.95
63097;BME280;49185;42.320;23.198;2022-10-31T02:42:08;95283.41;;;8.79;70.80
63097;BME280;49185;42.320;23.198;2022-10-31T02:44:43;95285.16;;;8.29;72.47
63097;BME280;49185;42.320;23.198;2022-10-31T02:47:16;95278.00;;;8.11;73.83
63097;BME280;49185;42.320;23.198;2022-10-31T02:49:50;95285.28;;;8.16;73.65
63097;BME280;49185;42.320;23.198;2022-10-31T02:52:19;95280.69;;;7.86;74.69
63097;BME280;49185;42.320;23.198;2022-10-31T02:54:47;95288.94;;;7.71;75.28
63097;BME280;49185;42.320;23.198;2022-10-31T02:57:13;95294.94;;;7.60;75.95
63097;BME280;49185;42.320;23.198;2022-10-31T02:59:45;95291.63;;;8.33;73.01
63097;BME280;49185;42.320;23.198;2022-10-31T03:02:57;95290.56;;;7.97;73.91
63097;BME280;49185;42.320;23.198;2022-10-31T03:13:02;95288.03;;;8.46;72.38
63097;BME280;49185;42.320;23.198;2022-10-31T03:15:33;95279.47;;;8.26;72.82
63097;BME280;49185;42.320;23.198;2022-10-31T03:18:09;95279.50;;;8.44;73.03
63097;BME280;49185;42.320;23.198;2022-10-31T03:20:40;95284.94;;;8.49;72.99
63097;BME280;49185;42.320;23.198;2022-10-31T03:23:12;95282.50;;;7.86;75.94
63097;BME280;49185;42.320;23.198;2022-10-31T03:25:39;95288.69;;;7.54;77.99
63097;BME280;49185;42.320;23.198;2022-10-31T03:28:06;95288.72;;;7.48;78.51
63097;BME280;49185;42.320;23.198;2022-10-31T03:30:35;95286.13;;;7.91;76.99
63097;BME280;49185;42.320;23.198;2022-10-31T03:33:05;95288.69;;;8.42;74.64
63097;BME280;49185;42.320;23.198;2022-10-31T03:35:33;95291.16;;;7.99;76.06
63097;BME280;49185;42.320;23.198;2022-10-31T03:38:00;95290.94;;;7.76;77.75
63097;BME280;49185;42.320;23.198;2022-10-31T03:40:27;95297.75;;;7.65;78.49
63097;BME280;49185;42.320;23.198;2022-10-31T03:42:59;95303.53;;;7.80;78.10
63097;BME280;49185;42.320;23.198;2022-10-31T03:45:28;95308.81;;;7.80;78.15
63097;BME280;49185;42.320;23.198;2022-10-31T03:47:55;95307.69;;;7.95;77.22
63097;BME280;49185;42.320;23.198;2022-10-31T03:50:24;95307.75;;;7.88;77.65
63097;BME280;49185;42.320;23.198;2022-10-31T03:53:03;95310.19;;;7.90;77.89
63097;BME280;49185;42.320;23.198;2022-10-31T03:55:44;95313.47;;;7.85;78.77
63097;BME280;49185;42.320;23.198;2022-10-31T04:00:45;95319.97;;;8.77;74.81
63097;BME280;49185;42.320;23.198;2022-10-31T04:03:32;95321.94;;;9.42;72.05
63097;BME280;49185;42.320;23.198;2022-10-31T04:06:04;95322.75;;;9.73;71.01
63097;BME280;49185;42.320;23.198;2022-10-31T04:08:33;95327.22;;;9.60;70.81
63097;BME280;49185;42.320;23.198;2022-10-31T04:11:02;95321.63;;;9.50;70.67
63097;BME280;49185;42.320;23.198;2022-10-31T04:13:32;95326.78;;;9.63;71.03
63097;BME280;49185;42.320;23.198;2022-10-31T04:15:59;95317.69;;;9.83;69.45
63097;BME280;49185;42.320;23.198;2022-10-31T04:18:25;95331.81;;;9.53;71.08
63097;BME280;49185;42.320;23.198;2022-10-31T04:21:00;95330.50;;;9.13;72.04
63097;BME280;49185;42.320;23.198;2022-10-31T04:23:27;95329.91;;;9.72;69.47
63097;BME280;49185;42.320;23.198;2022-10-31T04:25:52;95327.59;;;9.87;68.79
63097;BME280;49185;42.320;23.198;2022-10-31T04:28:18;95336.59;;;9.32;71.21
63097;BME280;49185;42.320;23.198;2022-10-31T04:30:44;95333.28;;;9.79;69.69
63097;BME280;49185;42.320;23.198;2022-10-31T04:33:09;95328.78;;;10.03;68.14
63097;BME280;49185;42.320;23.198;2022-10-31T04:35:34;95322.50;;;9.86;68.75
63097;BME280;49185;42.320;23.198;2022-10-31T04:38:00;95331.69;;;9.18;71.61
63097;BME280;49185;42.320;23.198;2022-10-31T04:40:25;95328.78;;;8.89;72.75
63097;BME280;49185;42.320;23.198;2022-10-31T04:42:51;95336.69;;;8.77;73.71
63097;BME280;49185;42.320;23.198;2022-10-31T04:45:16;95333.72;;;8.67;74.29
63097;BME280;49185;42.320;23.198;2022-10-31T04:47:42;95330.63;;;8.70;73.92
63097;BME280;49185;42.320;23.198;2022-10-31T04:50:07;95331.81;;;8.74;73.76
63097;BME280;49185;42.320;23.198;2022-10-31T04:52:39;95333.72;;;8.67;74.38
63097;BME280;49185;42.320;23.198;2022-10-31T04:55:04;95333.34;;;8.63;74.68
63097;BME280;49185;42.320;23.198;2022-10-31T04:57:30;95339.69;;;8.62;74.54
63097;BME280;49185;42.320;23.198;2022-10-31T04:59:55;95351.56;;;8.60;74.18
63097;BME280;49185;42.320;23.198;2022-10-31T05:02:21;95340.34;;;8.76;73.80
63097;BME280;49185;42.320;23.198;2022-10-31T05:04:46;95338.16;;;9.22;72.13
63097;BME280;49185;42.320;23.198;2022-10-31T05:07:11;95345.06;;;9.41;71.31
63097;BME280;49185;42.320;23.198;2022-10-31T05:09:37;95351.63;;;9.69;69.53
63097;BME280;49185;42.320;23.198;2022-10-31T05:12:03;95351.03;;;9.79;69.93
63097;BME280;49185;42.320;23.198;2022-10-31T05:14:28;95347.06;;;10.12;68.54
63097;BME280;49185;42.320;23.198;2022-10-31T05:16:53;95349.38;;;10.20;68.39
63097;BME280;49185;42.320;23.198;2022-10-31T05:19:19;95343.56;;;9.87;68.80
63097;BME280;49185;42.320;23.198;2022-10-31T05:21:44;95341.81;;;9.93;69.08
63097;BME280;49185;42.320;23.198;2022-10-31T05:24:10;95349.66;;;9.76;69.32
63097;BME280;49185;42.320;23.198;2022-10-31T05:26:35;95351.28;;;9.35;71.51
63097;BME280;49185;42.320;23.198;2022-10-31T05:29:01;95344.16;;;9.17;72.20
63097;BME280;49185;42.320;23.198;2022-10-31T05:31:26;95346.91;;;9.10;72.36
63097;BME280;49185;42.320;23.198;2022-10-31T05:33:51;95355.44;;;9.43;71.25
63097;BME280;49185;42.320;23.198;2022-10-31T05:36:17;95353.94;;;9.77;70.69
63097;BME280;49185;42.320;23.198;2022-10-31T05:38:42;95349.84;;;9.51;71.13
63097;BME280;49185;42.320;23.198;2022-10-31T05:41:08;95349.22;;;9.91;69.47
63097;BME280;49185;42.320;23.198;2022-10-31T05:43:33;95358.34;;;9.41;71.13
63097;BME280;49185;42.320;23.198;2022-10-31T05:45:59;95350.63;;;9.94;69.87
63097;BME280;49185;42.320;23.198;2022-10-31T05:48:24;95352.59;;;10.10;69.11
63097;BME280;49185;42.320;23.198;2022-10-31T05:50:50;95365.59;;;9.76;70.13
63097;BME280;49185;42.320;23.198;2022-10-31T05:53:15;95356.09;;;9.26;72.31
63097;BME280;49185;42.320;23.198;2022-10-31T05:55:42;95368.91;;;9.60;71.49
63097;BME280;49185;42.320;23.198;2022-10-31T05:58:07;95365.63;;;9.46;71.89
63097;BME280;49185;42.320;23.198;2022-10-31T06:00:33;95369.59;;;9.25;72.18
63097;BME280;49185;42.320;23.198;2022-10-31T06:03:09;95372.59;;;9.10;73.10
63097;BME280;49185;42.320;23.198;2022-10-31T06:05:34;95373.41;;;9.59;71.85
63097;BME280;49185;42.320;23.198;2022-10-31T06:08:00;95377.34;;;9.99;70.31
63097;BME280;49185;42.320;23.198;2022-10-31T06:10:26;95371.84;;;9.82;70.21
63097;BME280;49185;42.320;23.198;2022-10-31T06:12:52;95366.59;;;10.17;68.04
63097;BME280;49185;42.320;23.198;2022-10-31T06:15:17;95374.50;;;10.59;69.00
63097;BME280;49185;42.320;23.198;2022-10-31T06:17:43;95374.19;;;13.40;57.54
63097;BME280;49185;42.320;23.198;2022-10-31T06:20:09;95369.72;;;16.07;50.04
63097;BME280;49185;42.320;23.198;2022-10-31T06:22:35;95375.34;;;16.51;47.10
63097;BME280;49185;42.320;23.198;2022-10-31T06:25:00;95372.97;;;17.51;44.42
63097;BME280;49185;42.320;23.198;2022-10-31T06:27:26;95381.88;;;17.41;44.67
63097;BME280;49185;42.320;23.198;2022-10-31T06:29:52;95385.72;;;17.85;42.46
63097;BME280;49185;42.320;23.198;2022-10-31T06:32:17;95392.59;;;17.57;44.31
63097;BME280;49185;42.320;23.198;2022-10-31T06:34:43;95384.13;;;20.41;37.63
63097;BME280;49185;42.320;23.198;2022-10-31T06:37:11;95390.88;;;20.57;37.15
63097;BME280;49185;42.320;23.198;2022-10-31T06:39:37;95388.88;;;21.29;34.84
63097;BME280;49185;42.320;23.198;2022-10-31T06:42:03;95395.75;;;21.21;34.49
63097;BME280;49185;42.320;23.198;2022-10-31T06:44:29;95397.47;;;21.86;33.24
63097;BME280;49185;42.320;23.198;2022-10-31T06:46:55;95398.56;;;21.43;34.63
63097;BME280;49185;42.320;23.198;2022-10-31T06:49:20;95395.22;;;21.52;33.91
63097;BME280;49185;42.320;23.198;2022-10-31T06:51:49;95401.38;;;21.38;34.86
63097;BME280;49185;42.320;23.198;2022-10-31T06:54:15;95403.44;;;21.00;35.61
63097;BME280;49185;42.320;23.198;2022-10-31T06:59:06;95408.97;;;21.09;34.91
63097;BME280;49185;42.320;23.198;2022-10-31T07:01:31;95409.84;;;21.65;34.70
63097;BME280;49185;42.320;23.198;2022-10-31T07:03:57;95417.16;;;21.64;34.95
63097;BME280;49185;42.320;23.198;2022-10-31T07:06:22;95407.72;;;21.61;35.12
63097;BME280;49185;42.320;23.198;2022-10-31T07:08:48;95412.94;;;21.72;34.88
63097;BME280;49185;42.320;23.198;2022-10-31T07:11:13;95404.66;;;22.41;33.57
63097;BME280;49185;42.320;23.198;2022-10-31T07:13:39;95408.13;;;22.19;33.89
63097;BME280;49185;42.320;23.198;2022-10-31T07:16:05;95403.38;;;21.33;36.01
63097;BME280;49185;42.320;23.198;2022-10-31T07:18:30;95400.91;;;20.76;37.93
63097;BME280;49185;42.320;23.198;2022-10-31T07:20:56;95394.25;;;20.68;38.70
63097;BME280;49185;42.320;23.198;2022-10-31T07:23:22;95398.34;;;22.68;34.48
63097;BME280;49185;42.320;23.198;2022-10-31T07:25:47;95401.69;;;22.29;35.41
63097;BME280;49185;42.320;23.198;2022-10-31T07:28:13;95399.00;;;21.65;36.68
63097;BME280;49185;42.320;23.198;2022-10-31T07:30:39;95403.31;;;20.77;37.90
63097;BME280;49185;42.320;23.198;2022-10-31T07:33:05;95397.34;;;20.42;39.54
63097;BME280;49185;42.320;23.198;2022-10-31T07:35:31;95394.78;;;20.51;38.46
63097;BME280;49185;42.320;23.198;2022-10-31T07:37:57;95398.97;;;21.92;36.36
63097;BME280;49185;42.320;23.198;2022-10-31T07:40:23;95388.47;;;22.50;33.48
63097;BME280;49185;42.320;23.198;2022-10-31T07:42:51;95393.44;;;23.33;32.15
63097;BME280;49185;42.320;23.198;2022-10-31T07:45:18;95388.34;;;23.40;32.62
63097;BME280;49185;42.320;23.198;2022-10-31T07:47:52;95389.66;;;23.43;31.73
63097;BME280;49185;42.320;23.198;2022-10-31T07:50:20;95389.34;;;23.13;32.25
63097;BME280;49185;42.320;23.198;2022-10-31T07:52:46;95379.00;;;22.92;33.24
63097;BME280;49185;42.320;23.198;2022-10-31T07:55:12;95389.53;;;23.17;32.19
63097;BME280;49185;42.320;23.198;2022-10-31T07:57:38;95383.84;;;23.27;32.46
63097;BME280;49185;42.320;23.198;2022-10-31T08:00:08;95377.78;;;23.39;32.20
63097;BME280;49185;42.320;23.198;2022-10-31T08:02:34;95375.31;;;23.11;31.95
63097;BME280;49185;42.320;23.198;2022-10-31T08:05:00;95378.44;;;23.36;31.74
63097;BME280;49185;42.320;23.198;2022-10-31T08:07:26;95383.78;;;23.18;32.08
63097;BME280;49185;42.320;23.198;2022-10-31T08:09:51;95386.28;;;22.83;33.30
63097;BME280;49185;42.320;23.198;2022-10-31T08:12:17;95382.94;;;23.49;31.66
63097;BME280;49185;42.320;23.198;2022-10-31T08:14:43;95386.63;;;23.53;30.90
63097;BME280;49185;42.320;23.198;2022-10-31T08:17:08;95376.84;;;24.01;31.33
63097;BME280;49185;42.320;23.198;2022-10-31T08:19:34;95378.50;;;24.63;29.90
63097;BME280;49185;42.320;23.198;2022-10-31T08:21:59;95377.34;;;24.73;29.27
63097;BME280;49185;42.320;23.198;2022-10-31T08:24:24;95372.03;;;24.85;29.33
63097;BME280;49185;42.320;23.198;2022-10-31T08:26:50;95373.19;;;24.49;29.82
63097;BME280;49185;42.320;23.198;2022-10-31T08:29:16;95374.94;;;23.44;30.82
63097;BME280;49185;42.320;23.198;2022-10-31T08:31:42;95379.69;;;23.29;32.05
63097;BME280;49185;42.320;23.198;2022-10-31T08:34:08;95370.69;;;23.69;30.86
63097;BME280;49185;42.320;23.198;2022-10-31T08:36:34;95379.09;;;23.41;31.51
63097;BME280;49185;42.320;23.198;2022-10-31T08:39:00;95372.47;;;23.74;31.00
63097;BME280;49185;42.320;23.198;2022-10-31T08:41:25;95368.78;;;23.69;31.72
63097;BME280;49185;42.320;23.198;2022-10-31T08:43:51;95371.66;;;23.73;31.31
63097;BME280;49185;42.320;23.198;2022-10-31T08:46:16;95381.34;;;24.05;30.70
63097;BME280;49185;42.320;23.198;2022-10-31T08:48:42;95370.81;;;23.46;31.78
63097;BME280;49185;42.320;23.198;2022-10-31T08:51:09;95369.19;;;23.45;31.06
63097;BME280;49185;42.320;23.198;2022-10-31T08:53:35;95373.84;;;23.45;32.25
63097;BME280;49185;42.320;23.198;2022-10-31T08:56:00;95370.28;;;23.84;31.46
63097;BME280;49185;42.320;23.198;2022-10-31T08:58:26;95369.03;;;24.34;30.16
63097;BME280;49185;42.320;23.198;2022-10-31T09:00:53;95374.47;;;24.34;30.09
63097;BME280;49185;42.320;23.198;2022-10-31T09:03:27;95367.78;;;23.65;30.67
63097;BME280;49185;42.320;23.198;2022-10-31T09:05:59;95372.13;;;23.66;30.99
63097;BME280;49185;42.320;23.198;2022-10-31T09:08:25;95364.44;;;23.60;31.39
63097;BME280;49185;42.320;23.198;2022-10-31T09:10:50;95370.13;;;23.98;30.30
63097;BME280;49185;42.320;23.198;2022-10-31T09:13:18;95369.66;;;23.96;30.39
63097;BME280;49185;42.320;23.198;2022-10-31T09:15:46;95367.25;;;23.95;30.75
63097;BME280;49185;42.320;23.198;2022-10-31T09:18:13;95367.72;;;23.30;31.62
63097;BME280;49185;42.320;23.198;2022-10-31T09:20:40;95369.44;;;23.75;31.09
63097;BME280;49185;42.320;23.198;2022-10-31T09:23:09;95355.22;;;23.78;30.67
63097;BME280;49185;42.320;23.198;2022-10-31T09:25:35;95366.16;;;23.47;31.35
63097;BME280;49185;42.320;23.198;2022-10-31T09:28:02;95358.47;;;24.15;30.18
63097;BME280;49185;42.320;23.198;2022-10-31T09:30:29;95352.81;;;23.77;30.99
63097;BME280;49185;42.320;23.198;2022-10-31T09:33:00;95356.47;;;23.72;31.24
63097;BME280;49185;42.320;23.198;2022-10-31T09:35:27;95351.56;;;23.92;30.29
63097;BME280;49185;42.320;23.198;2022-10-31T09:38:00;95346.47;;;24.16;30.50
63097;BME280;49185;42.320;23.198;2022-10-31T09:40:40;95352.03;;;23.85;30.94
63097;BME280;49185;42.320;23.198;2022-10-31T09:43:41;95347.75;;;23.93;30.15
63097;BME280;49185;42.320;23.198;2022-10-31T09:56:26;95343.06;;;24.72;29.29
63097;BME280;49185;42.320;23.198;2022-10-31T09:58:58;95350.09;;;24.81;29.00
63097;BME280;49185;42.320;23.198;2022-10-31T10:01:33;95348.66;;;24.75;29.97
63097;BME280;49185;42.320;23.198;2022-10-31T10:09:37;95332.50;;;25.26;28.27
63097;BME280;49185;42.320;23.198;2022-10-31T10:12:16;95327.97;;;24.92;28.31
63097;BME280;49185;42.320;23.198;2022-10-31T10:25:15;95332.97;;;25.88;25.93
63097;BME280;49185;42.320;23.198;2022-10-31T10:30:46;95323.50;;;26.82;24.39
63097;BME280;49185;42.320;23.198;2022-10-31T10:33:16;95321.84;;;26.56;24.68
63097;BME280;49185;42.320;23.198;2022-10-31T10:35:52;95322.91;;;26.64;24.79
63097;BME280;49185;42.320;23.198;2022-10-31T10:38:33;95321.31;;;26.42;25.01
63097;BME280;49185;42.320;23.198;2022-10-31T10:41:09;95307.03;;;25.82;25.01
63097;BME280;49185;42.320;23.198;2022-10-31T10:43:38;95302.34;;;26.45;24.90
63097;BME280;49185;42.320;23.198;2022-10-31T11:02:41;95303.41;;;26.53;24.24
63097;BME280;49185;42.320;23.198;2022-10-31T11:05:15;95308.38;;;26.18;24.58
63097;BME280;49185;42.320;23.198;2022-10-31T11:07:43;95300.88;;;26.14;24.76
63097;BME280;49185;42.320;23.198;2022-10-31T11:10:13;95305.44;;;25.81;25.53
63097;BME280;49185;42.320;23.198;2022-10-31T11:12:39;95299.72;;;25.73;26.07
63097;BME280;49185;42.320;23.198;2022-10-31T11:15:17;95302.00;;;26.47;24.67
63097;BME280;49185;42.320;23.198;2022-10-31T11:17:51;95300.66;;;26.53;24.85
63097;BME280;49185;42.320;23.198;2022-10-31T11:22:45;95300.34;;;27.62;24.09
63097;BME280;49185;42.320;23.198;2022-10-31T11:25:24;95305.34;;;27.11;24.02
63097;BME280;49185;42.320;23.198;2022-10-31T11:28:08;95296.50;;;27.38;23.53
63097;BME280;49185;42.320;23.198;2022-10-31T11:30:50;95291.78;;;27.02;23.75
63097;BME280;49185;42.320;23.198;2022-10-31T11:33:38;95292.59;;;26.90;23.63
63097;BME280;49185;42.320;23.198;2022-10-31T11:36:24;95291.69;;;26.52;23.90
63097;BME280;49185;42.320;23.198;2022-10-31T11:38:51;95290.19;;;26.76;23.32
63097;BME280;49185;42.320;23.198;2022-10-31T11:41:33;95285.53;;;26.56;24.05
63097;BME280;49185;42.320;23.198;2022-10-31T11:44:16;95285.97;;;26.79;23.92
63097;BME280;49185;42.320;23.198;2022-10-31T11:46:47;95282.72;;;27.35;23.56
63097;BME280;49185;42.320;23.198;2022-10-31T11:49:36;95281.31;;;27.65;22.80
63097;BME280;49185;42.320;23.198;2022-10-31T11:52:20;95275.19;;;27.56;22.77
63097;BME280;49185;42.320;23.198;2022-10-31T11:57:24;95273.78;;;26.64;25.04
63097;BME280;49185;42.320;23.198;2022-10-31T11:59:52;95267.13;;;26.52;24.60
63097;BME280;49185;42.320;23.198;2022-10-31T12:02:19;95264.28;;;27.32;23.29
63097;BME280;49185;42.320;23.198;2022-10-31T12:04:54;95271.38;;;26.29;24.62
63097;BME280;49185;42.320;23.198;2022-10-31T12:07:22;95276.78;;;26.17;24.75
63097;BME280;49185;42.320;23.198;2022-10-31T12:09:47;95270.66;;;25.27;25.67
63097;BME280;49185;42.320;23.198;2022-10-31T12:12:17;95276.59;;;24.90;26.75
63097;BME280;49185;42.320;23.198;2022-10-31T12:17:18;95266.88;;;25.10;26.70
63097;BME280;49185;42.320;23.198;2022-10-31T12:37:06;95282.00;;;24.34;27.23
63097;BME280;49185;42.320;23.198;2022-10-31T12:42:21;95281.53;;;24.06;27.35
63097;BME280;49185;42.320;23.198;2022-10-31T12:45:08;95279.81;;;23.93;27.59
63097;BME280;49185;42.320;23.198;2022-10-31T12:47:49;95281.06;;;24.04;27.46
63097;BME280;49185;42.320;23.198;2022-10-31T12:50:34;95294.13;;;23.76;27.91
63097;BME280;49185;42.320;23.198;2022-10-31T12:58:49;95295.72;;;23.59;28.69
63097;BME280;49185;42.320;23.198;2022-10-31T13:01:41;95293.91;;;23.20;29.36
63097;BME280;49185;42.320;23.198;2022-10-31T13:07:27;95298.19;;;23.21;29.43
63097;BME280;49185;42.320;23.198;2022-10-31T13:10:00;95293.44;;;22.86;29.98
63097;BME280;49185;42.320;23.198;2022-10-31T13:12:29;95298.53;;;22.88;30.47
63097;BME280;49185;42.320;23.198;2022-10-31T13:14:59;95299.25;;;23.02;30.33
63097;BME280;49185;42.320;23.198;2022-10-31T13:17:34;95297.94;;;23.00;30.14
63097;BME280;49185;42.320;23.198;2022-10-31T13:20:33;95306.84;;;22.91;30.46
63097;BME280;49185;42.320;23.198;2022-10-31T13:23:35;95296.78;;;22.92;30.29
63097;BME280;49185;42.320;23.198;2022-10-31T13:26:08;95296.97;;;22.64;30.95
63097;BME280;49185;42.320;23.198;2022-10-31T13:28:45;95301.78;;;22.67;30.92
63097;BME280;49185;42.320;23.198;2022-10-31T13:31:11;95305.13;;;22.64;31.16
63097;BME280;49185;42.320;23.198;2022-10-31T13:33:58;95299.13;;;22.76;31.01
63097;BME280;49185;42.320;23.198;2022-10-31T13:39:39;95301.91;;;22.62;30.92
63097;BME280;49185;42.320;23.198;2022-10-31T13:42:21;95298.28;;;22.67;31.02
63097;BME280;49185;42.320;23.198;2022-10-31T13:44:49;95299.03;;;22.36;31.68
63097;BME280;49185;42.320;23.198;2022-10-31T13:47:26;95298.25;;;22.35;31.56
63097;BME280;49185;42.320;23.198;2022-10-31T13:52:42;95297.50;;;22.21;32.13
63097;BME280;49185;42.320;23.198;2022-10-31T13:55:38;95302.00;;;22.26;32.01
63097;BME280;49185;42.320;23.198;2022-10-31T13:58:20;95299.50;;;22.29;31.69
63097;BME280;49185;42.320;23.198;2022-10-31T14:01:19;95299.22;;;22.17;32.11
63097;BME280;49185;42.320;23.198;2022-10-31T14:03:45;95304.59;;;22.08;32.23
63097;BME280;49185;42.320;23.198;2022-10-31T14:06:12;95299.63;;;21.88;32.63
63097;BME280;49185;42.320;23.198;2022-10-31T14:08:48;95306.47;;;21.85;32.58
63097;BME280;49185;42.320;23.198;2022-10-31T14:11:24;95298.84;;;21.87;32.80
63097;BME280;49185;42.320;23.198;2022-10-31T14:13:51;95313.38;;;21.91;32.88
63097;BME280;49185;42.320;23.198;2022-10-31T14:16:30;95318.00;;;21.91;33.21
63097;BME280;49185;42.320;23.198;2022-10-31T14:19:00;95310.28;;;21.84;32.99
63097;BME280;49185;42.320;23.198;2022-10-31T14:21:29;95308.56;;;21.88;32.86
63097;BME280;49185;42.320;23.198;2022-10-31T14:23:56;95304.25;;;21.51;33.91
63097;BME280;49185;42.320;23.198;2022-10-31T14:28:51;95316.38;;;21.39;34.04
63097;BME280;49185;42.320;23.198;2022-10-31T14:42:25;95311.16;;;21.15;34.27
63097;BME280;49185;42.320;23.198;2022-10-31T14:50:41;95310.94;;;20.84;35.00
63097;BME280;49185;42.320;23.198;2022-10-31T14:53:23;95318.66;;;20.77;35.38
63097;BME280;49185;42.320;23.198;2022-10-31T14:55:52;95315.25;;;20.71;35.43
63097;BME280;49185;42.320;23.198;2022-10-31T14:58:22;95314.56;;;20.46;35.95
63097;BME280;49185;42.320;23.198;2022-10-31T15:00:53;95308.94;;;20.43;36.17
63097;BME280;49185;42.320;23.198;2022-10-31T15:03:36;95309.22;;;20.27;36.50
63097;BME280;49185;42.320;23.198;2022-10-31T15:06:11;95307.16;;;20.38;36.17
63097;BME280;49185;42.320;23.198;2022-10-31T15:08:40;95303.63;;;20.24;35.78
63097;BME280;49185;42.320;23.198;2022-10-31T15:13:50;95301.03;;;20.00;36.79
63097;BME280;49185;42.320;23.198;2022-10-31T15:16:24;95304.44;;;19.86;37.33
63097;BME280;49185;42.320;23.198;2022-10-31T15:18:57;95296.75;;;19.80;37.69
63097;BME280;49185;42.320;23.198;2022-10-31T15:21:26;95297.66;;;19.70;37.62
63097;BME280;49185;42.320;23.198;2022-10-31T15:23:54;95298.84;;;19.21;38.94
63097;BME280;49185;42.320;23.198;2022-10-31T15:26:22;95317.38;;;18.79;40.00
63097;BME280;49185;42.320;23.198;2022-10-31T15:29:03;95307.66;;;18.78;40.33